Time;durP1;ratioP1;P1;durP2;ratioP2;P2;SDS_P1;SDS_P2;PMS_P1;PMS_P2;Temp;Humidity;BMP_temperature;BMP_pressure;BME280_temperature;BME280_humidity;BME280_pressure;Samples;Min_cycle;Max_cycle;Signal;HPM_P1;HPM_P2
2022/02/11 00:00:40;;;;;;;28.70;12.70;;;;;;;4.40;72.98;99041.56;106045;1274;107824;-72
2022/02/11 00:08:30;;;;;;;28.90;12.60;;;;;;;4.44;72.84;99041.92;106094;1274;111410;-71
2022/02/11 00:10:58;;;;;;;26.80;11.70;;;;;;;4.45;72.74;99046.79;106005;1275;97908;-70
2022/02/11 00:13:29;;;;;;;26.10;12.20;;;;;;;4.47;72.73;99044.94;106098;1274;107749;-71
2022/02/11 00:15:57;;;;;;;27.90;13.20;;;;;;;4.49;72.78;99042.06;106014;1274;97822;-70
2022/02/11 00:18:25;;;;;;;27.00;12.60;;;;;;;4.49;72.82;99042.01;106062;1274;97866;-70
2022/02/11 00:20:53;;;;;;;25.50;12.40;;;;;;;4.50;72.72;99040.02;106042;1274;111485;-70
2022/02/11 00:23:23;;;;;;;26.90;12.60;;;;;;;4.51;72.57;99037.38;106078;1277;97867;-70
2022/02/11 00:26:09;;;;;;;26.60;12.30;;;;;;;4.51;72.63;99037.04;105932;1274;107807;-70
2022/02/11 00:33:54;;;;;;;25.50;11.10;;;;;;;4.51;72.60;99041.22;106048;1274;111310;-70
2022/02/11 00:36:27;;;;;;;25.10;12.40;;;;;;;4.52;72.54;99045.23;105969;1274;96016;-70
2022/02/11 01:04:00;;;;;;;25.50;12.30;;;;;;;4.74;72.45;99043.61;106042;1277;95190;-70
2022/02/11 01:06:31;;;;;;;24.80;11.70;;;;;;;4.77;72.44;99045.94;105980;1276;107814;-70
2022/02/11 01:08:59;;;;;;;28.40;12.20;;;;;;;4.80;72.40;99044.41;106003;1277;97861;-70
2022/02/11 01:11:33;;;;;;;24.10;10.80;;;;;;;4.83;72.46;99043.91;106028;1277;98002;-70
2022/02/11 01:14:05;;;;;;;24.80;11.90;;;;;;;4.87;72.46;99045.30;106008;1274;111439;-71
2022/02/11 01:16:45;;;;;;;26.20;12.20;;;;;;;4.90;72.38;99037.56;106084;1274;97823;-71
2022/02/11 01:19:35;;;;;;;25.60;10.40;;;;;;;4.95;72.42;99038.92;106137;1274;107707;-74
2022/02/11 01:22:18;;;;;;;26.60;12.10;;;;;;;4.99;72.27;99038.73;106017;1276;97872;-72
2022/02/11 01:38:08;;;;;;;25.10;11.70;;;;;;;5.20;72.16;99042.41;106060;1274;97890;-70
2022/02/11 01:41:10;;;;;;;25.90;11.30;;;;;;;5.24;72.09;99041.89;106071;1274;112044;-70
2022/02/11 01:49:24;;;;;;;27.20;11.50;;;;;;;5.29;72.10;99041.77;106043;1277;97946;-69
2022/02/11 01:51:58;;;;;;;24.70;10.70;;;;;;;5.31;72.00;99035.52;106033;1276;97885;-71
2022/02/11 02:25:42;;;;;;;25.50;11.50;;;;;;;5.50;71.86;99032.95;106110;1274;107722;-70
2022/02/11 02:58:15;;;;;;;28.70;12.70;;;;;;;5.55;71.69;99019.36;106084;1274;96202;-71
2022/02/11 03:01:29;;;;;;;23.90;11.80;;;;;;;5.56;71.66;99022.27;105953;1276;111412;-69
2022/02/11 04:57:02;;;;;;;26.30;13.90;;;;;;;6.18;71.39;99085.19;106134;1274;107726;-69
2022/02/11 04:59:38;;;;;;;28.80;13.00;;;;;;;6.21;71.62;99087.69;106042;1276;97881;-70
2022/02/11 05:02:07;;;;;;;30.10;13.80;;;;;;;6.24;71.56;99094.23;106154;1274;98113;-70
2022/02/11 05:04:35;;;;;;;29.70;14.50;;;;;;;6.27;71.77;99094.20;106085;1274;111529;-72
2022/02/11 05:07:03;;;;;;;27.50;13.40;;;;;;;6.30;71.68;99097.41;106144;1274;95878;-72
2022/02/11 05:09:33;;;;;;;29.00;14.30;;;;;;;6.32;71.67;99098.17;106186;1274;107665;-71
2022/02/11 05:12:05;;;;;;;26.80;13.00;;;;;;;6.34;71.69;99097.73;106176;1276;97828;-72
2022/02/11 05:14:33;;;;;;;27.50;13.30;;;;;;;6.35;71.61;99099.23;106138;1276;95279;-74
2022/02/11 05:17:00;;;;;;;28.60;13.10;;;;;;;6.37;71.65;99101.96;106108;1274;110061;-71
2022/02/11 05:19:28;;;;;;;27.40;12.80;;;;;;;6.39;71.63;99101.14;106088;1274;97983;-72
2022/02/11 05:21:59;;;;;;;31.60;13.90;;;;;;;6.40;71.57;99104.23;106069;1274;108758;-72
2022/02/11 05:24:28;;;;;;;29.50;13.90;;;;;;;6.41;71.58;99104.70;106142;1274;97873;-71
2022/02/11 05:26:56;;;;;;;29.10;13.20;;;;;;;6.40;71.52;99103.70;106127;1274;97841;-72
2022/02/11 05:29:24;;;;;;;27.40;13.20;;;;;;;6.39;71.58;99102.58;106113;1274;111397;-72
2022/02/11 05:31:52;;;;;;;27.20;14.00;;;;;;;6.38;71.55;99105.44;106081;1274;97847;-73
2022/02/11 05:34:20;;;;;;;27.60;13.20;;;;;;;6.37;71.56;99107.55;105981;1275;107524;-73
2022/02/11 05:36:47;;;;;;;27.80;13.40;;;;;;;6.37;71.46;99104.92;106140;1274;97988;-73
2022/02/11 05:39:16;;;;;;;30.60;15.10;;;;;;;6.36;71.35;99108.00;106125;1274;97936;-72
2022/02/11 05:41:44;;;;;;;30.10;15.10;;;;;;;6.36;71.72;99109.38;105998;1276;111278;-73
2022/02/11 05:44:14;;;;;;;31.70;15.30;;;;;;;6.36;71.53;99106.94;106120;1274;97864;-74
2022/02/11 05:46:42;;;;;;;30.90;16.10;;;;;;;6.37;71.71;99107.75;106038;1274;107620;-74
2022/02/11 05:49:10;;;;;;;28.90;15.00;;;;;;;6.37;71.54;99112.54;106052;1274;97935;-74
2022/02/11 05:51:37;;;;;;;30.50;16.40;;;;;;;6.37;71.52;99115.33;106074;1274;97837;-74
2022/02/11 05:54:05;;;;;;;32.80;17.10;;;;;;;6.36;71.54;99113.83;106125;1274;111094;-76
2022/02/11 05:56:33;;;;;;;30.50;15.80;;;;;;;6.35;71.63;99117.39;106073;1274;97956;-76
2022/02/11 05:59:03;;;;;;;32.70;15.90;;;;;;;6.34;71.62;99118.84;106061;1274;107759;-75
2022/02/11 06:01:32;;;;;;;28.00;14.50;;;;;;;6.32;71.48;99121.24;106034;1274;97897;-75
2022/02/11 06:04:02;;;;;;;31.20;16.10;;;;;;;6.30;71.52;99120.85;106075;1274;97953;-73
2022/02/11 06:06:30;;;;;;;30.20;16.20;;;;;;;6.29;71.58;99124.27;106079;1274;111353;-73
2022/02/11 06:08:58;;;;;;;30.40;15.90;;;;;;;6.29;71.74;99123.70;106120;1276;97756;-74
2022/02/11 06:11:29;;;;;;;30.90;15.60;;;;;;;6.29;71.36;99125.66;106058;1274;107781;-71
2022/02/11 06:13:59;;;;;;;29.40;14.70;;;;;;;6.28;71.63;99129.04;106073;1274;99065;-73
2022/02/11 06:16:31;;;;;;;32.40;16.50;;;;;;;6.26;71.65;99130.55;106122;1274;97931;-74
2022/02/11 06:18:59;;;;;;;30.40;16.50;;;;;;;6.25;71.70;99133.62;106087;1274;111437;-72
2022/02/11 06:21:27;;;;;;;28.70;15.30;;;;;;;6.24;71.78;99136.81;106131;1274;97866;-73
2022/02/11 06:23:57;;;;;;;31.10;16.60;;;;;;;6.27;71.62;99135.98;106081;1274;107755;-73
2022/02/11 06:26:30;;;;;;;35.30;18.40;;;;;;;6.28;71.64;99136.27;106012;1276;96358;-74
2022/02/11 06:28:58;;;;;;;36.80;19.90;;;;;;;6.27;71.72;99138.27;106137;1276;97979;-73
2022/02/11 06:31:29;;;;;;;36.40;20.80;;;;;;;6.28;71.66;99137.89;106120;1274;112283;-73
2022/02/11 06:33:57;;;;;;;39.40;20.90;;;;;;;6.27;71.69;99138.42;106106;1274;98616;-73
2022/02/11 06:36:27;;;;;;;41.40;21.00;;;;;;;6.26;71.80;99140.07;106936;1274;107595;-73
2022/02/11 06:38:59;;;;;;;38.60;20.70;;;;;;;6.25;71.76;99140.64;106136;1274;97074;-74
2022/02/11 06:41:27;;;;;;;37.00;20.80;;;;;;;6.23;71.49;99143.39;106180;1274;97922;-74
2022/02/11 06:43:55;;;;;;;35.60;20.30;;;;;;;6.21;71.72;99147.89;106055;1274;112390;-73
2022/02/11 06:46:22;;;;;;;34.30;20.20;;;;;;;6.21;71.72;99145.23;106144;1274;97906;-73
2022/02/11 06:48:51;;;;;;;33.60;17.90;;;;;;;6.21;71.66;99144.55;106039;1274;106816;-74
2022/02/11 06:51:21;;;;;;;37.50;19.10;;;;;;;6.20;71.67;99144.77;105990;1276;97861;-75
2022/02/11 06:53:48;;;;;;;35.10;19.00;;;;;;;6.20;71.74;99147.79;106134;1274;95192;-74
2022/02/11 06:56:16;;;;;;;35.10;18.10;;;;;;;6.19;71.84;99144.28;106081;1274;111438;-76
2022/02/11 06:58:49;;;;;;;36.20;19.20;;;;;;;6.19;71.91;99146.56;106057;1276;97814;-76
2022/02/11 07:01:20;;;;;;;34.10;18.00;;;;;;;6.19;71.86;99141.12;106060;1274;107744;-75
2022/02/11 07:03:52;;;;;;;34.20;17.90;;;;;;;6.21;72.04;99142.45;106031;1274;97883;-75
2022/02/11 07:06:20;;;;;;;34.00;18.00;;;;;;;6.22;71.75;99141.52;106141;1274;97877;-75
2022/02/11 07:08:48;;;;;;;31.20;17.20;;;;;;;6.21;71.77;99139.83;106155;1274;111152;-72
2022/02/11 07:11:15;;;;;;;34.10;17.60;;;;;;;6.18;71.74;99140.30;106021;1276;97989;-73
2022/02/11 07:13:43;;;;;;;33.40;19.20;;;;;;;6.16;71.71;99139.70;106113;1274;107752;-74
2022/02/11 07:16:11;;;;;;;34.50;18.70;;;;;;;6.16;71.69;99137.26;106026;1274;97981;-72
2022/02/11 07:18:44;;;;;;;34.50;17.90;;;;;;;6.13;71.75;99139.15;106090;1274;97865;-74
2022/02/11 07:21:13;;;;;;;32.40;18.30;;;;;;;6.10;71.75;99138.62;105874;1274;111465;-76
2022/02/11 07:23:43;;;;;;;36.00;18.00;;;;;;;6.09;71.77;99142.39;106019;1274;97972;-75
2022/02/11 07:26:11;;;;;;;33.90;19.00;;;;;;;6.09;71.74;99137.11;106026;1274;107460;-74
2022/02/11 07:28:39;;;;;;;34.00;19.50;;;;;;;6.09;71.74;99139.02;105773;1276;98089;-74
2022/02/11 07:31:07;;;;;;;35.60;18.50;;;;;;;6.10;71.74;99136.70;106083;1274;98602;-75
2022/02/11 07:33:35;;;;;;;34.20;19.10;;;;;;;6.13;71.95;99131.40;106091;1274;111533;-74
2022/02/11 07:36:06;;;;;;;35.00;18.80;;;;;;;6.15;71.95;99135.19;106071;1274;98076;-77
2022/02/11 07:38:34;;;;;;;37.60;19.60;;;;;;;6.16;71.92;99136.37;106031;1274;108062;-76
2022/02/11 07:41:03;;;;;;;34.60;19.30;;;;;;;6.16;71.92;99138.14;106028;1274;96441;-78
2022/02/11 07:43:33;;;;;;;37.80;20.00;;;;;;;6.16;71.97;99133.58;106031;1274;98586;-77
2022/02/11 07:46:10;;;;;;;38.00;20.60;;;;;;;6.20;72.07;99136.87;105957;1274;111244;-76
2022/02/11 07:48:39;;;;;;;36.70;20.10;;;;;;;6.21;72.18;99134.14;105961;1274;97774;-74
2022/02/11 07:51:06;;;;;;;34.40;18.20;;;;;;;6.24;71.93;99128.57;106051;1274;107663;-76
2022/02/11 07:53:45;;;;;;;31.70;17.70;;;;;;;6.25;72.21;99129.75;105971;1274;98419;-75
2022/02/11 07:56:16;;;;;;;34.60;17.60;;;;;;;6.27;72.03;99133.52;106008;1274;97883;-77
2022/02/11 07:58:44;;;;;;;31.00;17.60;;;;;;;6.27;72.22;99132.43;105954;1274;111387;-76
2022/02/11 08:01:14;;;;;;;33.90;18.90;;;;;;;6.29;72.19;99127.08;105925;1275;97730;-78
2022/02/11 08:03:42;;;;;;;33.90;18.60;;;;;;;6.31;72.19;99127.68;105977;1274;106993;-77
2022/02/11 08:06:11;;;;;;;32.80;17.10;;;;;;;6.30;72.20;99129.46;105810;1275;97953;-76
2022/02/11 08:08:39;;;;;;;34.40;18.10;;;;;;;6.31;72.10;99131.67;105916;1274;97443;-78
2022/02/11 08:11:07;;;;;;;33.80;17.30;;;;;;;6.32;71.96;99130.23;105870;1275;111370;-77
2022/02/11 08:13:36;;;;;;;33.10;17.30;;;;;;;6.34;72.21;99129.43;105708;1274;97958;-79
2022/02/11 08:16:07;;;;;;;32.60;16.60;;;;;;;6.37;72.24;99130.49;105865;1274;107577;-75
2022/02/11 08:18:37;;;;;;;31.00;16.90;;;;;;;6.41;72.12;99123.43;105871;1274;97813;-76
2022/02/11 08:21:16;;;;;;;34.10;18.00;;;;;;;6.45;72.22;99123.74;105844;1276;95973;-74
2022/02/11 08:23:44;;;;;;;29.40;16.80;;;;;;;6.51;72.42;99127.60;105915;1274;110711;-75
2022/02/11 08:26:12;;;;;;;30.30;16.30;;;;;;;6.60;72.37;99127.30;106004;1274;95881;-76
2022/02/11 08:28:40;;;;;;;28.70;15.60;;;;;;;6.67;72.19;99124.80;105935;1274;107757;-75
2022/02/11 08:31:11;;;;;;;30.40;16.80;;;;;;;6.74;72.23;99125.15;106026;1274;99053;-75
2022/02/11 08:33:38;;;;;;;29.70;15.70;;;;;;;6.80;72.31;99128.15;106041;1274;97951;-76
2022/02/11 08:36:06;;;;;;;32.10;15.90;;;;;;;6.83;72.38;99124.10;106033;1274;111492;-76
2022/02/11 08:38:34;;;;;;;30.90;15.30;;;;;;;6.84;72.40;99128.09;105987;1274;97885;-74
2022/02/11 08:41:03;;;;;;;26.70;13.50;;;;;;;6.84;72.20;99126.15;106143;1274;107744;-73
2022/02/11 08:43:33;;;;;;;27.90;13.90;;;;;;;6.82;72.23;99127.52;106115;1274;97982;-75
2022/02/11 08:46:01;;;;;;;29.70;14.00;;;;;;;6.81;72.28;99132.52;106066;1274;96562;-75
2022/02/11 08:48:32;;;;;;;24.40;12.40;;;;;;;6.80;72.10;99130.42;106014;1274;111528;-76
2022/02/11 08:51:00;;;;;;;26.90;12.30;;;;;;;6.81;72.06;99129.13;106003;1274;96862;-77
2022/02/11 08:53:37;;;;;;;24.00;11.60;;;;;;;6.83;72.12;99127.98;105979;1274;107673;-78
2022/02/11 08:56:07;;;;;;;25.40;11.90;;;;;;;6.88;72.24;99122.75;105901;1274;96308;-75
2022/02/11 08:58:38;;;;;;;25.80;13.30;;;;;;;6.96;72.30;99124.73;106002;1274;95426;-76
2022/02/11 09:01:06;;;;;;;26.50;13.60;;;;;;;7.06;72.29;99117.35;105894;1276;111399;-77
2022/02/11 09:03:39;;;;;;;29.70;15.80;;;;;;;7.09;72.13;99118.56;106075;1274;97816;-77
2022/02/11 09:06:10;;;;;;;30.20;16.40;;;;;;;7.09;72.28;99111.53;106019;1274;107856;-78
2022/02/11 09:08:40;;;;;;;31.80;15.90;;;;;;;7.09;72.41;99111.02;105865;1274;97924;-78
2022/02/11 09:11:09;;;;;;;30.30;15.90;;;;;;;7.03;72.46;99101.10;105987;1274;95981;-79
2022/02/11 09:13:42;;;;;;;34.00;17.20;;;;;;;7.06;72.71;99103.62;105964;1274;111036;-74
2022/02/11 09:16:09;;;;;;;34.90;19.60;;;;;;;7.10;72.40;99099.13;106047;1274;98565;-77
2022/02/11 09:18:39;;;;;;;33.40;18.40;;;;;;;7.23;72.54;99094.50;106023;1274;107710;-75
2022/02/11 09:21:11;;;;;;;34.20;17.90;;;;;;;7.37;72.63;99087.89;105993;1275;98466;-74
2022/02/11 09:23:40;;;;;;;32.60;17.70;;;;;;;7.49;72.78;99085.21;105981;1274;97860;-72
2022/02/11 09:26:10;;;;;;;31.60;16.40;;;;;;;7.63;72.60;99082.27;106007;1274;111406;-75
2022/02/11 09:28:38;;;;;;;32.70;17.50;;;;;;;7.85;72.54;99085.00;105976;1274;97893;-73
2022/02/11 09:31:07;;;;;;;30.30;16.20;;;;;;;8.09;72.82;99081.95;105993;1275;108129;-73
2022/02/11 09:33:39;;;;;;;29.40;16.20;;;;;;;8.23;72.76;99083.36;105988;1274;95885;-73
2022/02/11 09:36:12;;;;;;;31.70;16.90;;;;;;;8.26;72.76;99079.15;106007;1274;97870;-74
2022/02/11 09:38:43;;;;;;;28.70;15.90;;;;;;;8.27;72.61;99087.54;106100;1274;111306;-74
2022/02/11 09:41:16;;;;;;;28.40;15.20;;;;;;;8.30;72.70;99088.07;105923;1275;97914;-72
2022/02/11 09:43:50;;;;;;;29.60;15.60;;;;;;;8.39;72.65;99087.69;105986;1275;107752;-76
2022/02/11 09:46:21;;;;;;;27.00;14.30;;;;;;;8.46;72.70;99086.00;105994;1274;97764;-75
2022/02/11 09:48:48;;;;;;;31.00;16.00;;;;;;;8.51;72.75;99090.32;106013;1276;97850;-76
2022/02/11 09:51:15;;;;;;;28.50;16.10;;;;;;;8.53;72.70;99091.61;105915;1275;97863;-75
2022/02/11 09:53:42;;;;;;;30.30;17.00;;;;;;;8.52;72.68;99092.56;106080;1274;97947;-76
2022/02/11 09:56:14;;;;;;;30.10;15.50;;;;;;;8.52;72.58;99091.48;105990;1276;106848;-75
2022/02/11 09:59:02;;;;;;;29.50;14.90;;;;;;;8.54;72.47;99087.50;106049;1274;98225;-75
2022/02/11 10:01:38;;;;;;;27.70;15.40;;;;;;;8.56;72.45;99079.38;106053;1274;97853;-75
2022/02/11 10:04:15;;;;;;;28.10;15.90;;;;;;;8.65;72.64;99070.69;106041;1276;111339;-77
2022/02/11 10:06:51;;;;;;;27.70;14.60;;;;;;;8.83;72.60;99070.38;105991;1274;98582;-75
2022/02/11 10:09:24;;;;;;;;;;;;;;;9.00;72.67;99068.58;105913;1276;107711;-77
2022/02/11 10:11:56;;;;;;;29.70;15.90;;;;;;;9.22;72.68;99067.87;106107;1274;97923;-75
2022/02/11 10:14:34;;;;;;;29.90;16.30;;;;;;;9.38;72.20;99067.82;106116;1274;96570;-76
2022/02/11 10:17:06;;;;;;;29.60;16.00;;;;;;;9.51;72.54;99060.27;106010;1274;111386;-77
2022/02/11 10:19:54;;;;;;;32.40;15.40;;;;;;;9.64;72.54;99066.09;106134;1274;97888;-75
2022/02/11 10:22:29;;;;;;;28.80;14.40;;;;;;;9.72;72.21;99065.89;106065;1276;107720;-78
2022/02/11 10:24:58;;;;;;;29.40;14.60;;;;;;;9.64;71.91;99054.39;106043;1275;97932;-74
2022/02/11 10:27:37;;;;;;;27.10;13.40;;;;;;;9.65;72.05;99047.60;106052;1276;97958;-76
2022/02/11 10:30:07;;;;;;;29.20;13.50;;;;;;;9.75;72.11;99035.77;106131;1274;111503;-76
2022/02/11 10:32:48;;;;;;;27.20;14.00;;;;;;;9.92;72.28;99029.14;106031;1275;97909;-74
2022/02/11 10:35:24;;;;;;;26.10;13.50;;;;;;;10.18;72.16;99023.20;106041;1274;107582;-75
2022/02/11 10:38:14;;;;;;;28.40;14.00;;;;;;;10.43;72.17;99016.80;106063;1274;95285;-76
2022/02/11 10:40:46;;;;;;;27.50;13.40;;;;;;;10.68;72.22;99013.55;106072;1274;97986;-76
2022/02/11 10:43:29;;;;;;;25.40;12.70;;;;;;;10.92;72.07;99013.79;105898;1275;111574;-80
2022/02/11 10:46:01;;;;;;;25.00;11.90;;;;;;;11.16;72.10;99013.61;106093;1274;97877;-76
2022/02/11 10:48:37;;;;;;;28.70;12.80;;;;;;;11.24;71.64;99014.23;105976;1274;108974;-73
2022/02/11 10:51:07;;;;;;;25.90;12.70;;;;;;;11.22;71.42;99012.44;106005;1274;98944;-81
2022/02/11 10:53:37;;;;;;;26.90;12.60;;;;;;;11.13;71.27;99007.96;105987;1275;96387;-76
2022/02/11 10:56:06;;;;;;;24.60;12.30;;;;;;;11.04;71.09;99006.45;106091;1274;111420;-76
2022/02/11 10:58:34;;;;;;;27.60;14.70;;;;;;;11.00;71.02;98997.93;106110;1274;98005;-77
2022/02/11 11:01:05;;;;;;;25.30;13.20;;;;;;;10.97;70.98;98993.91;105998;1274;107849;-76
2022/02/11 11:03:34;;;;;;;26.20;12.80;;;;;;;10.98;70.41;98997.91;105935;1274;98346;-76
2022/02/11 11:06:10;;;;;;;25.90;12.50;;;;;;;10.83;69.42;98999.38;105813;1276;96297;-77
2022/02/11 11:08:40;;;;;;;28.90;12.50;;;;;;;10.70;70.18;98997.12;107602;1274;113552;-75
2022/02/11 11:11:10;;;;;;;25.40;12.00;;;;;;;10.66;70.41;98989.98;106022;1274;97369;-76
2022/02/11 11:13:42;;;;;;;24.90;11.80;;;;;;;10.61;70.33;98993.55;106131;1276;106847;-77
2022/02/11 11:16:14;;;;;;;25.30;12.80;;;;;;;10.52;69.96;98996.83;107697;1274;97887;-73
2022/02/11 11:18:42;;;;;;;25.00;11.10;;;;;;;10.37;69.08;98992.77;107682;1275;95739;-75
2022/02/11 11:21:16;;;;;;;25.40;12.10;;;;;;;10.22;69.38;98989.89;106968;1274;111416;-79
2022/02/11 11:23:58;;;;;;;23.90;11.50;;;;;;;10.19;69.57;98983.96;106093;1276;98390;-79
2022/02/11 11:26:46;;;;;;;26.00;11.30;;;;;;;10.13;69.39;98975.02;106041;1276;107179;-76
2022/02/11 11:29:16;;;;;;;25.00;11.60;;;;;;;10.07;69.39;98975.80;105994;1274;95390;-74
2022/02/11 11:31:56;;;;;;;22.40;9.90;;;;;;;10.02;69.35;98974.00;105988;1274;97931;-79
2022/02/11 11:34:29;;;;;;;27.90;10.40;;;;;;;9.89;68.23;98964.15;105930;1274;111169;-78
2022/02/11 11:37:10;;;;;;;21.90;11.10;;;;;;;9.72;68.23;98963.89;105944;1274;97820;-78
2022/02/11 11:39:42;;;;;;;21.40;9.10;;;;;;;9.58;67.89;98953.17;105923;1274;107701;-75
2022/02/11 11:42:20;;;;;;;22.50;10.30;;;;;;;9.40;66.71;98952.16;105943;1274;95708;-76
2022/02/11 11:44:56;;;;;;;21.30;9.60;;;;;;;9.25;66.98;98951.02;105979;1274;98104;-78
2022/02/11 11:47:28;;;;;;;22.20;10.00;;;;;;;9.16;67.31;98954.12;105982;1275;111473;-76
2022/02/11 11:50:03;;;;;;;21.30;9.30;;;;;;;9.13;67.59;98955.77;105944;1275;97846;-78
2022/02/11 11:52:51;;;;;;;22.80;10.30;;;;;;;9.10;67.13;98955.26;105926;1274;107741;-75
2022/02/11 11:55:24;;;;;;;21.10;9.60;;;;;;;8.99;66.75;98956.67;105959;1274;97991;-75
2022/02/11 11:57:56;;;;;;;21.90;10.00;;;;;;;8.90;66.83;98954.85;106031;1275;97815;-75
2022/02/11 12:00:44;;;;;;;20.70;9.20;;;;;;;8.84;66.82;98960.05;106089;1274;111552;-76
2022/02/11 12:03:23;;;;;;;20.80;9.40;;;;;;;8.74;66.36;98958.56;106074;1275;98489;-77
2022/02/11 12:05:53;;;;;;;21.30;9.50;;;;;;;8.64;66.40;98955.88;106004;1275;107723;-76
2022/02/11 12:08:29;;;;;;;22.90;10.60;;;;;;;8.55;66.43;98960.69;105983;1275;97898;-76
2022/02/11 12:10:59;;;;;;;21.30;10.40;;;;;;;8.50;66.70;98960.64;105924;1276;97889;-78
2022/02/11 12:13:32;;;;;;;23.40;11.00;;;;;;;8.46;66.62;98953.27;105962;1274;111591;-74
2022/02/11 12:16:05;;;;;;;25.00;11.90;;;;;;;8.42;66.39;98946.84;105948;1276;97966;-75
2022/02/11 12:18:42;;;;;;;24.70;13.10;;;;;;;8.37;66.41;98947.89;105964;1274;107739;-74
2022/02/11 12:21:10;;;;;;;24.40;11.60;;;;;;;8.33;66.18;98946.37;105994;1275;97967;-72
2022/02/11 12:29:23;;;;;;;24.30;11.20;;;;;;;8.04;65.39;98942.05;106017;1275;95183;-74
2022/02/11 12:31:55;;;;;;;24.60;12.50;;;;;;;7.97;65.30;98941.93;106013;1275;107757;-71
2022/02/11 12:34:26;;;;;;;24.80;11.80;;;;;;;7.86;64.64;98941.25;106010;1274;97099;-73
2022/02/11 12:37:11;;;;;;;22.30;11.00;;;;;;;7.75;64.59;98940.35;106128;1275;97955;-73
2022/02/11 12:39:39;;;;;;;24.20;12.30;;;;;;;7.64;64.43;98938.36;106154;1275;111946;-75
2022/02/11 12:42:08;;;;;;;26.00;12.80;;;;;;;7.55;64.68;98939.27;106060;1277;95973;-73
2022/02/11 12:44:42;;;;;;;26.10;12.60;;;;;;;7.51;64.77;98939.68;105980;1274;107822;-72
2022/02/11 12:47:15;;;;;;;26.30;12.40;;;;;;;7.45;64.86;98942.88;105974;1274;95343;-73
2022/02/11 12:49:48;;;;;;;30.00;14.60;;;;;;;7.40;64.78;98943.17;106008;1274;97991;-74
2022/02/11 12:52:22;;;;;;;26.60;13.60;;;;;;;7.36;64.65;98940.47;106028;1274;113018;-77
2022/02/11 12:55:10;;;;;;;28.00;13.30;;;;;;;7.28;64.65;98934.72;106022;1275;97909;-75
2022/02/11 12:57:45;;;;;;;25.90;12.40;;;;;;;7.23;64.89;98934.38;105991;1274;107689;-74
2022/02/11 13:00:18;;;;;;;;;;;;;;;7.20;64.67;98936.31;105985;1274;98996;-73
2022/02/11 13:02:51;;;;;;;28.20;14.40;;;;;;;7.12;64.47;98935.89;106005;1274;97919;-75
2022/02/11 13:05:20;;;;;;;27.90;14.50;;;;;;;7.03;64.47;98939.80;106029;1274;111507;-72
2022/02/11 13:07:54;;;;;;;27.20;13.60;;;;;;;6.94;64.54;98940.81;106130;1274;96154;-74
2022/02/11 13:10:39;;;;;;;28.90;14.70;;;;;;;6.90;64.48;98942.52;106097;1274;107694;-75
2022/02/11 13:13:16;;;;;;;32.20;15.50;;;;;;;6.78;64.65;98947.02;106021;1274;98418;-75
2022/02/11 13:15:52;;;;;;;31.20;15.50;;;;;;;6.70;64.64;98945.59;105918;1276;97926;-74
2022/02/11 13:18:22;;;;;;;31.00;15.60;;;;;;;6.62;64.83;98947.48;106159;1274;111498;-72
2022/02/11 13:20:52;;;;;;;33.30;16.30;;;;;;;6.58;64.98;98947.70;106144;1274;97927;-74
2022/02/11 13:23:24;;;;;;;32.90;16.70;;;;;;;6.50;64.86;98952.01;106178;1275;107926;-74
2022/02/11 13:25:57;;;;;;;34.00;16.40;;;;;;;6.45;65.22;98947.20;106056;1275;97954;-75
2022/02/11 13:28:29;;;;;;;;;;;;;;;6.42;65.06;98948.42;106132;1275;97885;-74
2022/02/11 13:31:02;;;;;;;32.30;16.00;;;;;;;6.35;65.35;98957.11;106106;1276;111554;-75
2022/02/11 13:33:37;;;;;;;35.90;17.50;;;;;;;6.32;65.45;98956.61;106103;1275;97856;-77
2022/02/11 13:36:10;;;;;;;36.60;17.70;;;;;;;6.31;65.17;98957.20;105908;1274;108853;-75
2022/02/11 13:39:02;;;;;;;34.20;17.40;;;;;;;6.29;65.43;98969.29;106101;1274;97954;-80
2022/02/11 13:41:38;;;;;;;35.70;17.50;;;;;;;6.26;65.25;98971.01;106065;1275;95263;-77
2022/02/11 13:44:13;;;;;;;35.50;18.10;;;;;;;6.25;65.40;98974.41;106068;1276;112328;-76
2022/02/11 13:47:00;;;;;;;34.20;16.50;;;;;;;6.22;65.38;98974.20;105973;1277;98016;-75
2022/02/11 13:49:38;;;;;;;33.70;16.60;;;;;;;6.18;65.33;98974.80;106068;1274;107859;-74
2022/02/11 13:55:12;;;;;;;33.30;16.10;;;;;;;6.11;65.42;98978.88;106122;1275;95384;-74
2022/02/11 13:57:44;;;;;;;35.60;17.60;;;;;;;6.10;65.59;98979.83;105961;1276;111364;-73
2022/02/11 14:00:37;;;;;;;36.60;18.80;;;;;;;6.08;65.41;98983.11;106070;1275;97895;-73
2022/02/11 14:03:06;;;;;;;35.60;18.60;;;;;;;6.06;65.48;98984.24;105985;1275;107875;-75
2022/02/11 14:05:44;;;;;;;41.50;18.90;;;;;;;6.05;65.68;98984.85;106027;1276;97860;-74
2022/02/11 14:08:15;;;;;;;33.00;17.10;;;;;;;6.05;65.46;98982.21;105993;1276;98527;-75
2022/02/11 14:10:46;;;;;;;36.50;17.90;;;;;;;6.04;65.74;98977.52;106003;1274;111382;-73
2022/02/11 14:13:23;;;;;;;35.90;18.30;;;;;;;6.03;65.68;98983.71;106006;1274;97636;-75
2022/02/11 14:15:51;;;;;;;35.60;17.60;;;;;;;6.02;65.75;98981.52;105922;1276;107754;-75
2022/02/11 14:18:19;;;;;;;39.50;19.00;;;;;;;6.00;65.71;98982.11;105979;1276;97924;-76
2022/02/11 14:20:47;;;;;;;34.50;17.60;;;;;;;5.99;65.78;98981.81;106030;1274;97840;-75
2022/02/11 14:23:20;;;;;;;38.70;19.70;;;;;;;6.02;65.78;98974.45;106031;1275;111373;-74
2022/02/11 14:25:49;;;;;;;44.80;21.50;;;;;;;5.99;65.95;98974.06;105991;1276;97960;-78
2022/02/11 14:28:23;;;;;;;43.70;20.20;;;;;;;5.95;65.86;98975.30;106099;1274;107713;-78
2022/02/11 14:30:51;;;;;;;46.80;20.30;;;;;;;5.98;66.15;98968.83;105991;1276;95647;-77
2022/02/11 14:33:21;;;;;;;43.20;19.00;;;;;;;6.03;65.93;98964.55;106111;1275;97860;-76
2022/02/11 14:35:49;;;;;;;36.10;17.50;;;;;;;6.06;66.07;98965.95;105952;1277;110564;-78
2022/02/11 14:38:17;;;;;;;38.20;18.20;;;;;;;6.09;66.27;98965.05;106142;1276;97970;-79
2022/02/11 14:43:32;;;;;;;34.40;16.50;;;;;;;6.08;66.31;98966.20;105985;1274;97904;-77
2022/02/11 14:46:01;;;;;;;36.40;18.20;;;;;;;6.09;66.27;98969.11;105958;1276;97909;-77
2022/02/11 14:48:29;;;;;;;35.00;15.80;;;;;;;6.08;66.32;98971.66;105939;1277;111101;-75
2022/02/11 14:51:01;;;;;;;42.00;19.40;;;;;;;6.06;66.31;98972.84;106029;1274;97967;-76
2022/02/11 14:53:32;;;;;;;41.70;20.40;;;;;;;6.04;66.37;98969.23;106087;1274;107551;-77
2022/02/11 14:56:00;;;;;;;43.20;20.20;;;;;;;6.06;66.40;98967.52;105996;1275;97843;-76
2022/02/11 14:58:28;;;;;;;37.40;19.00;;;;;;;6.14;66.53;98967.65;105981;1275;97887;-77
2022/02/11 15:00:56;;;;;;;42.20;21.20;;;;;;;6.20;66.48;98974.50;106071;1275;109991;-77
2022/02/11 15:03:28;;;;;;;39.60;20.30;;;;;;;6.26;66.48;98975.40;106129;1274;97952;-75
2022/02/11 15:05:56;;;;;;;42.60;21.70;;;;;;;6.32;66.62;98978.95;105947;1276;107739;-77
2022/02/11 15:08:24;;;;;;;43.40;21.90;;;;;;;6.34;66.55;98973.52;106015;1276;97964;-77
2022/02/11 15:10:52;;;;;;;41.60;20.80;;;;;;;6.34;66.66;98975.48;106033;1274;97978;-78
2022/02/11 15:13:20;;;;;;;42.90;21.50;;;;;;;6.33;66.73;98976.08;106043;1276;111368;-77
2022/02/11 15:15:48;;;;;;;45.50;22.10;;;;;;;6.29;66.50;98990.73;106082;1277;97954;-77
2022/02/11 15:18:16;;;;;;;38.70;19.30;;;;;;;6.25;66.66;98991.47;105962;1274;107690;-77
2022/02/11 15:20:45;;;;;;;38.40;17.70;;;;;;;6.18;66.48;98997.33;106008;1277;97880;-78
2022/02/11 15:23:13;;;;;;;37.70;19.60;;;;;;;6.13;66.50;98997.80;105963;1275;97879;-79
2022/02/11 15:25:41;;;;;;;35.80;18.50;;;;;;;6.11;66.60;99001.59;106000;1274;110031;-77
2022/02/11 15:28:09;;;;;;;41.10;20.60;;;;;;;6.09;66.29;99009.78;105983;1276;95223;-77
2022/02/11 15:30:37;;;;;;;42.10;21.80;;;;;;;6.08;66.65;99007.75;105956;1276;108749;-76
2022/02/11 15:33:05;;;;;;;39.80;19.80;;;;;;;6.07;66.65;99010.43;105835;1276;345447;-77
2022/02/11 15:35:32;;;;;;;39.50;19.10;;;;;;;6.11;66.81;99017.10;106000;1276;96745;-77